createdAt,value
2023-04-08T00:01:46.526Z,66.17
2023-04-08T00:04:52.246Z,65.79
2023-04-08T00:07:58.741Z,64.64
2023-04-08T00:11:04.575Z,65.98
2023-04-08T00:14:13.718Z,65.51
2023-04-08T00:17:19.206Z,65.23
2023-04-08T00:20:28.167Z,64.43
2023-04-08T00:23:33.679Z,65.17
2023-04-08T00:26:40.000Z,65.10
2023-04-08T00:29:48.535Z,64.34
2023-04-08T00:32:54.998Z,64.72
2023-04-08T00:36:00.556Z,65.09
2023-04-08T00:39:08.113Z,63.58
2023-04-08T00:42:13.663Z,64.30
2023-04-08T00:45:23.043Z,63.51
2023-04-08T00:48:28.801Z,63.65
2023-04-08T00:51:36.818Z,63.22
2023-04-08T00:54:42.390Z,63.69
2023-04-08T00:57:49.808Z,64.60
2023-04-08T01:01:08.898Z,64.48
2023-04-08T01:04:32.378Z,64.03
2023-04-08T01:07:44.753Z,63.34
2023-04-08T01:10:59.806Z,63.42
2023-04-08T01:14:13.129Z,62.85
2023-04-08T01:17:26.031Z,63.63
2023-04-08T01:20:33.802Z,63.14
2023-04-08T01:23:57.697Z,64.30
2023-04-08T01:27:10.082Z,64.04
2023-04-08T01:30:18.047Z,63.25
2023-04-08T01:33:27.330Z,64.17
2023-04-08T01:36:36.312Z,62.82
2023-04-08T01:39:46.028Z,62.80
2023-04-08T01:42:59.772Z,63.31
2023-04-08T01:46:06.286Z,63.30
2023-04-08T01:49:14.326Z,63.42
2023-04-08T01:52:24.279Z,64.01
2023-04-08T01:55:32.013Z,63.28
2023-04-08T01:58:50.366Z,64.08
2023-04-08T02:01:57.421Z,63.51
2023-04-08T02:05:03.950Z,64.01
2023-04-08T02:08:10.323Z,63.83
2023-04-08T02:11:16.711Z,63.67
2023-04-08T02:14:26.433Z,63.14
2023-04-08T02:17:47.534Z,63.24
2023-04-08T02:21:05.289Z,63.91
2023-04-08T02:24:18.690Z,63.70
2023-04-08T02:27:28.125Z,63.81
2023-04-08T02:30:41.159Z,63.16
2023-04-08T02:33:47.910Z,63.44
2023-04-08T02:36:55.407Z,64.35
2023-04-08T02:40:01.277Z,64.01
2023-04-08T02:43:07.745Z,63.85
2023-04-08T02:46:16.667Z,64.00
2023-04-08T02:49:23.067Z,63.80
2023-04-08T02:52:28.784Z,64.00
2023-04-08T02:55:35.364Z,64.64
2023-04-08T02:58:41.115Z,64.66
2023-04-08T03:01:50.628Z,64.62
2023-04-08T03:04:56.336Z,63.73
2023-04-08T03:08:02.707Z,64.43
2023-04-08T03:11:08.571Z,64.71
2023-04-08T03:14:15.108Z,64.88
2023-04-08T03:17:24.101Z,64.59
2023-04-08T03:20:30.405Z,64.89
2023-04-08T03:23:36.209Z,64.36
2023-04-08T03:26:42.589Z,65.24
2023-04-08T03:29:48.202Z,64.00
2023-04-08T03:32:57.360Z,63.90
2023-04-08T03:36:03.226Z,64.69
2023-04-08T03:39:10.614Z,64.38
2023-04-08T03:42:16.193Z,64.27
2023-04-08T03:45:22.817Z,63.85
2023-04-08T03:48:31.382Z,63.91
2023-04-08T03:51:38.018Z,63.56
2023-04-08T03:54:43.668Z,63.92
2023-04-08T03:57:50.351Z,64.01
2023-04-08T04:00:56.820Z,64.51
2023-04-08T04:04:06.106Z,63.28
2023-04-08T04:07:11.660Z,63.86
2023-04-08T04:10:18.221Z,63.47
2023-04-08T04:13:23.695Z,63.38
2023-04-08T04:16:32.723Z,63.05
2023-04-08T04:19:41.313Z,63.24
2023-04-08T04:22:48.174Z,63.15
2023-04-08T04:25:53.652Z,64.01
2023-04-08T04:28:59.940Z,62.75
2023-04-08T04:32:05.575Z,62.85
2023-04-08T04:35:15.188Z,63.72
2023-04-08T04:38:20.738Z,63.06
2023-04-08T04:41:27.849Z,62.13
2023-04-08T04:44:33.524Z,62.50
2023-04-08T04:47:39.911Z,63.26
2023-04-08T04:50:48.381Z,62.67
2023-04-08T04:53:54.939Z,63.62
2023-04-08T04:57:00.406Z,63.73
2023-04-08T05:00:08.645Z,62.34
2023-04-08T05:03:14.353Z,62.56
2023-04-08T05:06:23.607Z,62.33
2023-04-08T05:09:29.378Z,62.69
2023-04-08T05:12:35.930Z,63.13
2023-04-08T05:15:41.468Z,61.72
2023-04-08T05:18:47.873Z,62.50
2023-04-08T05:21:56.210Z,61.72
2023-04-08T05:25:02.560Z,62.69
2023-04-08T05:28:08.818Z,62.01
2023-04-08T05:31:15.197Z,61.55
2023-04-08T05:34:23.460Z,61.43
2023-04-08T05:37:33.098Z,62.02
2023-04-08T05:40:38.585Z,61.74
2023-04-08T05:43:44.884Z,62.74
2023-04-08T05:46:50.899Z,62.86
2023-04-08T05:49:57.346Z,62.64
2023-04-08T05:53:05.602Z,62.63
2023-04-08T05:56:12.294Z,62.30
2023-04-08T05:59:17.782Z,62.33
2023-04-08T06:02:24.158Z,61.54
2023-04-08T06:05:30.073Z,62.79
2023-04-08T06:08:39.153Z,62.06
2023-04-08T06:11:44.728Z,61.10
2023-04-08T06:14:51.841Z,61.49
2023-04-08T06:17:57.349Z,62.18
2023-04-08T06:21:03.664Z,61.31
2023-04-08T06:24:12.362Z,61.18
2023-04-08T06:27:18.752Z,61.92
2023-04-08T06:30:24.979Z,60.87
2023-04-08T06:33:31.434Z,59.82
2023-04-08T06:36:37.157Z,60.07
2023-04-08T06:39:47.456Z,61.20
2023-04-08T06:42:52.905Z,61.18
2023-04-08T06:46:13.198Z,59.81
2023-04-08T06:49:18.997Z,59.36
2023-04-08T06:52:25.937Z,58.84
2023-04-08T06:55:34.142Z,58.48
2023-04-08T06:58:40.483Z,59.59
2023-04-08T07:01:47.008Z,58.45
2023-04-08T07:04:53.517Z,58.68
2023-04-08T07:07:59.232Z,58.82
2023-04-08T07:11:08.673Z,58.60
2023-04-08T07:14:15.340Z,57.82
2023-04-08T07:17:21.716Z,58.09
2023-04-08T07:20:28.051Z,56.60
2023-04-08T07:23:34.438Z,56.50
2023-04-08T07:26:43.056Z,55.10
2023-04-08T07:29:49.361Z,55.04
2023-04-08T07:32:58.022Z,54.28
2023-04-08T07:36:05.669Z,54.57
2023-04-08T07:39:11.185Z,54.53
2023-04-08T07:42:20.317Z,53.65
2023-04-08T07:45:25.865Z,54.10
2023-04-08T07:48:32.872Z,54.00
2023-04-08T07:51:38.631Z,53.63
2023-04-08T07:54:45.151Z,53.84
2023-04-08T07:57:53.525Z,53.88
2023-04-08T08:01:00.522Z,54.21
2023-04-08T08:04:07.059Z,53.45
2023-04-08T08:07:13.790Z,53.75
2023-04-08T08:10:19.381Z,53.39
2023-04-08T08:13:28.810Z,52.95
2023-04-08T08:16:35.045Z,53.39
2023-04-08T08:19:41.623Z,54.19
2023-04-08T08:22:56.720Z,54.66
2023-04-08T08:26:04.695Z,55.19
2023-04-08T08:29:12.986Z,53.46
2023-04-08T08:32:19.324Z,53.82
2023-04-08T08:35:24.779Z,53.62
2023-04-08T08:38:31.555Z,54.17
2023-04-08T08:41:38.424Z,54.66
2023-04-08T08:44:47.985Z,55.18
2023-04-08T08:47:54.716Z,54.20
2023-04-08T08:51:01.463Z,53.41
2023-04-08T08:54:07.123Z,54.09
2023-04-08T08:57:21.863Z,53.62
2023-04-08T09:00:39.280Z,54.13
2023-04-08T09:03:46.241Z,54.76
2023-04-08T09:07:07.982Z,54.70
2023-04-08T09:10:14.677Z,54.28
2023-04-08T09:13:20.181Z,53.79
2023-04-08T09:16:29.610Z,53.62
2023-04-08T09:19:35.160Z,53.88
2023-04-08T09:23:02.509Z,54.24
2023-04-08T09:26:12.760Z,53.22
2023-04-08T09:32:51.995Z,52.88
2023-04-08T09:35:58.705Z,52.53
2023-04-08T09:39:04.536Z,52.53
2023-04-08T09:42:16.682Z,53.26
2023-04-08T09:45:23.082Z,53.30
2023-04-08T09:48:43.956Z,52.34
2023-04-08T09:52:01.212Z,52.45
2023-04-08T09:55:12.515Z,52.33
2023-04-08T09:58:27.867Z,52.29
2023-04-08T10:01:43.216Z,51.54
2023-04-08T10:04:58.810Z,51.63
2023-04-08T10:08:05.211Z,51.61
2023-04-08T10:11:11.249Z,51.56
2023-04-08T10:14:17.908Z,51.45
2023-04-08T10:17:36.971Z,49.91
2023-04-08T10:20:51.924Z,50.06
2023-04-08T10:24:01.681Z,49.02
2023-04-08T10:27:43.700Z,48.23
2023-04-08T10:30:51.370Z,48.33
2023-04-08T10:33:58.363Z,47.16
2023-04-08T10:37:06.795Z,46.85
2023-04-08T10:40:23.146Z,46.74
2023-04-08T10:43:28.613Z,46.98
2023-04-08T10:46:41.733Z,45.75
2023-04-08T10:49:48.688Z,45.36
2023-04-08T10:52:58.213Z,45.02
2023-04-08T10:56:13.693Z,46.95
2023-04-08T10:59:32.415Z,45.99
2023-04-08T11:02:41.242Z,47.11
2023-04-08T11:05:48.181Z,47.36
2023-04-08T11:08:56.391Z,46.79
2023-04-08T11:12:03.753Z,46.59
2023-04-08T11:15:10.902Z,46.09
2023-04-08T11:18:18.353Z,45.82
2023-04-08T11:21:29.903Z,45.00
2023-04-08T11:24:40.366Z,45.57
2023-04-08T11:27:46.715Z,45.17
2023-04-08T11:30:54.301Z,45.45
2023-04-08T11:33:59.829Z,45.57
2023-04-08T11:37:07.112Z,44.65
2023-04-08T11:40:16.767Z,45.30
2023-04-08T11:43:23.694Z,44.79
2023-04-08T11:46:29.407Z,45.72
2023-04-08T11:49:48.449Z,45.63
2023-04-08T11:52:57.344Z,44.32
2023-04-08T11:56:26.830Z,44.11
2023-04-08T11:59:32.523Z,44.21
2023-04-08T12:02:39.314Z,44.73
2023-04-08T12:05:46.926Z,44.92
2023-04-08T12:08:53.756Z,44.89
2023-04-08T12:12:02.365Z,45.35
2023-04-08T12:15:11.469Z,46.16
2023-04-08T12:18:17.024Z,46.63
2023-04-08T12:21:23.681Z,47.07
2023-04-08T12:24:29.455Z,47.72
2023-04-08T12:27:38.577Z,46.96
2023-04-08T12:30:44.077Z,47.58
2023-04-08T12:33:50.824Z,47.74
2023-04-08T12:36:57.298Z,46.93
2023-04-08T12:40:03.900Z,47.42
2023-04-08T12:43:12.259Z,47.15
2023-04-08T12:46:18.704Z,47.18
2023-04-08T12:49:24.547Z,47.78
2023-04-08T12:52:30.976Z,47.65
2023-04-08T12:55:37.003Z,48.71
2023-04-08T12:58:46.103Z,48.12
2023-04-08T13:01:51.622Z,48.30
2023-04-08T13:04:58.021Z,48.48
2023-04-08T13:08:03.537Z,49.10
2023-04-08T13:11:11.386Z,49.45
2023-04-08T13:14:19.636Z,50.38
2023-04-08T13:17:26.159Z,50.61
2023-04-08T13:20:31.627Z,50.82
2023-04-08T13:23:38.545Z,51.12
2023-04-08T13:26:44.001Z,51.33
2023-04-08T13:29:53.314Z,51.05
2023-04-08T13:32:58.856Z,51.67
2023-04-08T13:36:06.031Z,51.87
2023-04-08T13:39:11.554Z,52.44
2023-04-08T13:42:17.859Z,52.68
2023-04-08T13:45:27.019Z,53.64
2023-04-08T13:48:33.433Z,53.26
2023-04-08T13:51:39.116Z,53.22
2023-04-08T13:54:45.492Z,53.45
2023-04-08T13:57:51.421Z,53.84
2023-04-08T14:01:00.860Z,53.12
2023-04-08T14:04:07.074Z,53.23
2023-04-08T14:07:13.486Z,53.78
2023-04-08T14:10:19.214Z,54.07
2023-04-08T14:13:25.914Z,54.17
2023-04-08T14:16:35.973Z,54.40
2023-04-08T14:19:42.448Z,54.72
2023-04-08T14:22:47.972Z,54.52
2023-04-08T14:25:54.640Z,54.41
2023-04-08T14:29:00.348Z,54.94
2023-04-08T14:32:09.817Z,54.17
2023-04-08T14:35:15.347Z,55.02
2023-04-08T14:38:21.935Z,54.48
2023-04-08T14:41:27.984Z,53.85
2023-04-08T14:44:34.370Z,53.62
2023-04-08T14:47:42.651Z,53.11
2023-04-08T14:50:49.517Z,53.58
2023-04-08T14:53:54.944Z,53.34
2023-04-08T14:57:02.331Z,53.93
2023-04-08T15:00:10.217Z,53.62
2023-04-08T15:03:19.695Z,53.52
2023-04-08T15:06:34.960Z,54.09
2023-04-08T15:09:42.174Z,54.20
2023-04-08T15:12:47.895Z,53.26
2023-04-08T15:15:54.259Z,54.10
2023-04-08T15:19:02.644Z,53.98
2023-04-08T15:22:08.999Z,54.39
2023-04-08T15:25:14.736Z,54.13
2023-04-08T15:28:21.185Z,53.42
2023-04-08T15:31:26.682Z,54.56
2023-04-08T15:34:36.069Z,53.88
2023-04-08T15:37:41.657Z,54.40
2023-04-08T15:40:48.320Z,55.51
2023-04-08T15:43:56.457Z,54.19
2023-04-08T15:47:03.109Z,54.48
2023-04-08T15:50:13.068Z,54.50
2023-04-08T15:53:19.444Z,55.11
2023-04-08T15:56:25.403Z,54.56
2023-04-08T15:59:32.669Z,55.24
2023-04-08T16:02:38.386Z,54.73
2023-04-08T16:05:47.827Z,53.92
2023-04-08T16:08:53.427Z,54.00
2023-04-08T16:12:00.242Z,54.60
2023-04-08T16:15:05.877Z,54.55
2023-04-08T16:18:13.732Z,54.89
2023-04-08T16:21:22.101Z,55.25
2023-04-08T16:24:28.505Z,55.00
2023-04-08T16:27:33.962Z,54.03
2023-04-08T16:30:43.810Z,54.56
2023-04-08T16:33:49.673Z,54.54
2023-04-08T16:36:59.113Z,54.71
2023-04-08T16:40:04.763Z,54.89
2023-04-08T16:43:12.698Z,54.65
2023-04-08T16:46:21.071Z,54.55
2023-04-08T16:49:28.059Z,54.88
2023-04-08T16:52:36.608Z,55.58
2023-04-08T16:55:42.968Z,54.76
2023-04-08T16:58:48.720Z,54.93
2023-04-08T17:01:55.322Z,54.92
2023-04-08T17:05:01.091Z,55.49
2023-04-08T17:08:10.723Z,54.95
2023-04-08T17:11:18.485Z,55.28
2023-04-08T17:14:24.921Z,55.74
2023-04-08T17:17:30.852Z,56.06
2023-04-08T17:20:37.832Z,55.57
2023-04-08T17:23:46.248Z,56.27
2023-04-08T17:26:53.105Z,55.77
2023-04-08T17:29:59.356Z,56.09
2023-04-08T17:33:05.710Z,56.34
2023-04-08T17:36:12.360Z,56.56
2023-04-08T17:39:21.969Z,56.37
2023-04-08T17:42:27.733Z,56.91
2023-04-08T17:45:34.387Z,56.88
2023-04-08T17:48:39.869Z,56.77
2023-04-08T17:51:46.453Z,56.21
2023-04-08T17:54:54.873Z,56.64
2023-04-08T17:58:01.491Z,56.73
2023-04-08T18:01:07.466Z,56.36
2023-04-08T18:04:14.215Z,56.49
2023-04-08T18:07:20.053Z,56.29
2023-04-08T18:10:29.508Z,56.98
2023-04-08T18:13:35.253Z,56.80
2023-04-08T18:16:41.763Z,57.26
2023-04-08T18:19:47.513Z,56.74
2023-04-08T18:22:54.114Z,56.97
2023-04-08T18:26:02.431Z,57.35
2023-04-08T18:29:08.881Z,57.34
2023-04-08T18:32:14.731Z,58.11
2023-04-08T18:35:21.384Z,58.49
2023-04-08T18:38:27.076Z,58.46
2023-04-08T18:41:37.664Z,58.77
2023-04-08T18:44:43.439Z,58.91
2023-04-08T18:47:49.988Z,59.33
2023-04-08T18:50:56.248Z,59.29
2023-04-08T18:54:02.582Z,59.06
2023-04-08T18:57:11.057Z,59.40
2023-04-08T19:00:17.723Z,58.99
2023-04-08T19:03:23.753Z,59.43
2023-04-08T19:06:30.753Z,59.41
2023-04-08T19:09:36.399Z,59.23
2023-04-08T19:12:46.915Z,59.09
2023-04-08T19:15:52.391Z,59.12
2023-04-08T19:18:58.884Z,59.54
2023-04-08T19:22:06.246Z,59.66
2023-04-08T19:25:13.305Z,59.61
2023-04-08T19:28:21.548Z,59.25
2023-04-08T19:31:27.962Z,59.66
2023-04-08T19:34:33.586Z,59.78
2023-04-08T19:37:39.914Z,60.38
2023-04-08T19:40:45.560Z,60.27
2023-04-08T19:43:54.878Z,60.42
2023-04-08T19:47:00.556Z,60.62
2023-04-08T19:50:08.213Z,60.76
2023-04-08T19:53:13.781Z,60.68
2023-04-08T19:56:20.176Z,61.02
2023-04-08T19:59:28.790Z,60.57
2023-04-08T20:02:35.201Z,60.81
2023-04-08T20:05:40.940Z,60.31
2023-04-08T20:08:47.478Z,60.44
2023-04-08T20:11:53.242Z,60.49
2023-04-08T20:15:02.512Z,60.14
2023-04-08T20:18:08.181Z,60.30
2023-04-08T20:21:15.649Z,60.72
2023-04-08T20:24:21.947Z,60.71
2023-04-08T20:27:28.356Z,61.15
2023-04-08T20:30:36.668Z,61.25
2023-04-08T20:33:44.404Z,61.16
2023-04-08T20:36:49.847Z,61.11
2023-04-08T20:39:56.563Z,61.15
2023-04-08T20:43:01.981Z,61.19
2023-04-08T20:46:11.434Z,60.84
2023-04-08T20:49:19.317Z,60.78
2023-04-08T20:52:25.882Z,60.51
2023-04-08T20:55:31.341Z,60.91
2023-04-08T20:58:38.065Z,60.79
2023-04-08T21:01:46.556Z,60.63
2023-04-08T21:04:53.177Z,60.41
2023-04-08T21:07:58.926Z,60.37
2023-04-08T21:11:05.530Z,60.65
2023-04-08T21:14:11.364Z,60.61
2023-04-08T21:17:20.595Z,60.75
2023-04-08T21:20:26.224Z,60.53
2023-04-08T21:23:32.758Z,60.70
2023-04-08T21:26:38.290Z,60.90
2023-04-08T21:29:44.879Z,60.48
2023-04-08T21:32:53.134Z,61.01
2023-04-08T21:35:59.749Z,61.09
2023-04-08T21:39:05.310Z,61.37
2023-04-08T21:42:11.602Z,61.15
2023-04-08T21:45:18.128Z,61.22
2023-04-08T21:48:27.223Z,60.65
2023-04-08T21:51:32.726Z,61.47
2023-04-08T21:54:39.447Z,61.58
2023-04-08T21:57:44.968Z,61.43
2023-04-08T22:00:51.802Z,61.61
2023-04-08T22:04:00.242Z,62.07
2023-04-08T22:07:06.662Z,62.66
2023-04-08T22:10:13.406Z,63.31
2023-04-08T22:13:20.913Z,64.03
2023-04-08T22:16:26.745Z,64.64
2023-04-08T22:19:35.892Z,65.16
2023-04-08T22:22:41.349Z,65.85
2023-04-08T22:25:47.697Z,66.42
2023-04-08T22:28:53.401Z,67.41
2023-04-08T22:31:59.995Z,66.96
2023-04-08T22:35:10.012Z,67.20
2023-04-08T22:38:16.331Z,66.56
2023-04-08T22:41:23.613Z,65.90
2023-04-08T22:44:30.145Z,66.12
2023-04-08T22:47:36.689Z,66.44
2023-04-08T22:50:45.871Z,66.22
2023-04-08T22:53:51.820Z,66.40
2023-04-08T22:56:58.152Z,66.03
2023-04-08T23:00:05.066Z,65.86
2023-04-08T23:03:11.608Z,65.47
2023-04-08T23:06:20.128Z,64.96
2023-04-08T23:09:27.461Z,64.79
2023-04-08T23:12:32.888Z,64.77
2023-04-08T23:15:39.236Z,64.42
2023-04-08T23:18:44.698Z,64.31
2023-04-08T23:21:53.968Z,65.12
2023-04-08T23:24:59.658Z,65.46
2023-04-08T23:28:05.987Z,64.66
2023-04-08T23:31:11.644Z,64.71
2023-04-08T23:34:17.991Z,64.42
2023-04-08T23:37:26.322Z,66.20
2023-04-08T23:40:32.631Z,66.24
2023-04-08T23:43:38.566Z,66.72
2023-04-08T23:46:44.935Z,66.45
2023-04-08T23:49:50.805Z,65.62
2023-04-08T23:52:59.942Z,65.61
2023-04-08T23:56:10.016Z,65.52
2023-04-08T23:59:16.429Z,65.82
